Latest Weather Observations for Meekatharra

IDW60801

Issued at 12:33 pm WST Thursday 25 May 2017 (issued every 30 minutes, with the page automatically refreshed every 10 minutes)

About weather observations | Map of weather stations | Latest weather observations for WA | Other Formats
Station Details ID: 007045 Name: MEEKATHARRA AIRPORT Lat: -26.61 Lon: 118.54 Height: 517.0 m
Data from the previous 72 hours. | See also: Recent months at Meekatharra
Date/Time
WST
Temp
°C
App
Temp
°C
Dew
Point
°C
Rel
Hum
%
Delta-T
°C
Wind Press
QNH
hPa
Press
MSL
hPa
Rain since
9am
mm
Dir  Spd
km/h
Gust
km/h
Spd
kts
Gust
kts
25/12:30pm 26.5 22.4 4.3 24 11.4 N 15 24 8 13 1019.4 1017.9 0.0
25/12:00pm 26.1 21.9 4.0 24 11.3 NNE 15 22 8 12 1019.8 1018.3 0.0
25/11:30am 25.3 21.4 3.3 24 11.1 NE 13 20 7 11 1020.5 1018.9 0.0
25/11:00am 24.5 19.7 2.6 24 10.8 NNE 17 28 9 15 1020.9 1019.4 0.0
25/10:30am 23.4 18.9 2.3 25 10.3 NE 15 22 8 12 1021.2 1019.7 0.0
25/10:00am 23.2 18.2 1.5 24 10.4 NNE 17 24 9 13 1021.6 1020.1 0.0
25/09:30am 22.1 17.4 1.2 25 9.9 NE 15 20 8 11 1021.6 1020.1 0.0
25/09:00am 20.2 15.2 1.1 28 8.9 NE 17 24 9 13 1021.4 1019.9 0.0
25/08:30am 18.6 14.0 1.6 32 7.9 NE 15 22 8 12 1021.2 1019.7 0.0
25/08:00am 16.0 12.6 2.1 39 6.4 ENE 9 13 5 7 1021.3 1019.8 0.0
25/07:30am 14.1 11.2 2.4 45 5.3 E 7 11 4 6 1021.0 1019.5 0.0
25/07:00am 12.2 9.2 2.1 50 4.5 ENE 7 9 4 5 1020.8 1019.2 0.0
25/06:30am 12.2 9.2 2.1 50 4.5 ENE 7 11 4 6 1020.4 1018.8 0.0
25/06:00am 12.9 9.2 2.2 48 4.8 NE 11 13 6 7 1020.3 1018.7 0.0
25/05:30am 13.2 9.5 2.1 47 5.0 NE 11 13 6 7 1020.2 1018.6 0.0
25/05:00am 13.1 9.0 2.4 48 4.8 NE 13 17 7 9 1019.8 1018.3 0.0
25/04:30am 11.9 8.2 2.1 51 4.3 NE 11 13 6 7 1019.9 1018.4 0.0
25/04:00am 12.7 8.6 2.3 49 4.6 ENE 13 17 7 9 1020.2 1018.6 0.0
25/03:30am 12.1 8.8 2.3 51 4.4 ENE 9 11 5 6 1020.3 1018.7 0.0
25/03:00am 12.3 9.0 2.5 51 4.4 ENE 9 11 5 6 1020.2 1018.6 0.0
25/02:30am 12.4 9.4 2.0 49 4.6 ESE 7 9 4 5 1020.2 1018.6 0.0
25/02:00am 13.1 9.8 2.4 48 4.8 E 9 11 5 6 1020.2 1018.6 0.0
25/01:30am 13.9 9.8 2.2 45 5.3 E 13 15 7 8 1020.1 1018.5 0.0
25/01:00am 14.3 10.2 2.2 44 5.5 E 13 15 7 8 1020.2 1018.6 0.0
25/12:30am 15.1 11.0 2.3 42 5.9 E 13 17 7 9 1020.1 1018.5 0.0
25/12:00am 15.6 11.5 2.4 41 6.1 ESE 13 19 7 10 1020.1 1018.5 0.0
 
Date/Time
WST
Temp
°C
App
Temp
°C
Dew
Point
°C
Rel
Hum
%
Delta-T
°C
Wind Press
QNH
hPa
Press
MSL
hPa
Rain since
9am
mm
Dir  Spd
km/h
Gust
km/h
Spd
kts
Gust
kts
24/11:30pm 15.7 11.5 1.8 39 6.3 ESE 13 17 7 9 1020.3 1018.7 0.0
24/11:00pm 16.0 11.7 1.3 37 6.6 ESE 13 17 7 9 1020.4 1018.8 0.0
24/10:30pm 16.8 11.8 1.3 35 7.0 ESE 17 20 9 11 1020.4 1018.8 0.0
24/10:00pm 16.9 12.7 1.4 35 7.0 ESE 13 17 7 9 1020.4 1018.8 0.0
24/09:30pm 17.4 12.7 1.0 33 7.4 ESE 15 17 8 9 1020.4 1018.8 0.0
24/09:00pm 18.3 14.0 0.9 31 7.9 ESE 13 17 7 9 1020.4 1018.8 0.0
24/08:30pm 19.5 15.2 1.0 29 8.5 SE 13 17 7 9 1020.4 1018.8 0.0
24/08:00pm 19.3 15.0 1.3 30 8.3 SSE 13 15 7 8 1020.3 1018.7 0.0
24/07:30pm 18.7 14.9 1.7 32 7.9 SSE 11 11 6 6 1020.2 1018.6 0.0
24/07:00pm 18.9 15.4 1.4 31 8.1 S 9 11 5 6 1020.2 1018.6 0.0
24/06:30pm 20.1 16.7 2.0 30 8.6 SW 9 9 5 5 1019.9 1018.4 0.0
24/06:00pm 21.5 18.1 1.7 27 9.4 SW 9 11 5 6 1019.6 1018.1 0.0
24/05:30pm 23.0 19.6 1.9 25 10.2 W 9 13 5 7 1019.2 1017.7 0.0
24/05:00pm 24.4 20.5 1.3 22 11.1 W 11 15 6 8 1018.9 1017.3 0.0
24/04:30pm 24.9 20.7 1.7 22 11.3 WSW 13 19 7 10 1018.8 1017.2 0.0
24/04:00pm 25.0 21.2 1.8 22 11.3 WSW 11 22 6 12 1018.6 1017.0 0.0
24/03:30pm 25.8 22.1 2.5 22 11.6 WNW 11 22 6 12 1018.5 1016.9 0.0
24/03:00pm 25.4 22.4 2.2 22 11.4 W 7 13 4 7 1018.7 1017.1 0.0
24/02:30pm 25.8 21.7 2.5 22 11.6 WNW 13 20 7 11 1018.7 1017.1 0.0
24/02:00pm 26.0 22.4 2.7 22 11.6 WSW 11 19 6 10 1018.8 1017.2 0.0
24/01:30pm 25.5 22.3 2.9 23 11.3 NW 9 17 5 9 1019.0 1017.4 0.0
24/01:00pm 24.8 22.1 3.5 25 10.7 WSW 7 13 4 7 1019.4 1017.9 0.0
24/12:30pm 24.6 21.1 3.3 25 10.7 NW 11 19 6 10 1019.9 1018.4 0.0
24/12:00pm 24.1 20.6 3.4 26 10.3 N 11 19 6 10 1020.4 1018.8 0.0
24/11:30am 23.8 20.0 3.7 27 10.1 N 13 19 7 10 1020.8 1019.2 0.0
24/11:00am 22.9 18.6 3.4 28 9.6 NNE 15 20 8 11 1021.2 1019.7 0.0
24/10:30am 21.6 16.8 2.8 29 9.1 NNE 17 24 9 13 1021.6 1020.1 0.0
24/10:00am 20.9 16.1 2.7 30 8.7 NE 17 22 9 12 1021.9 1020.4 0.0
24/09:30am 19.6 14.8 2.5 32 8.1 NE 17 24 9 13 1022.2 1020.6 0.0
24/09:00am 18.3 13.8 2.2 34 7.5 NE 15 20 8 11 1022.2 1020.6 0.0
24/08:30am 15.3 11.1 1.8 40 6.1 NE 13 17 7 9 1022.2 1020.6 0.0
24/08:00am 13.5 9.3 1.5 44 5.3 ENE 13 17 7 9 1022.0 1020.5 0.0
24/07:30am 11.2 7.2 0.6 48 4.5 ENE 11 15 6 8 1021.7 1020.2 0.0
24/07:00am 10.0 5.6 0.3 51 4.0 ENE 13 15 7 8 1021.4 1019.9 0.0
24/06:30am 9.5 5.8 0.1 52 3.9 ENE 9 11 5 6 1021.2 1019.7 0.0
24/06:00am 9.6 5.9 0.2 52 3.9 ENE 9 11 5 6 1021.1 1019.6 0.0
24/05:30am 10.3 6.3 0.3 50 4.2 E 11 13 6 7 1020.9 1019.4 0.0
24/05:00am 10.4 6.7 0.2 49 4.3 ENE 9 13 5 7 1020.8 1019.2 0.0
24/04:30am 10.5 6.5 0.3 49 4.3 ENE 11 15 6 8 1020.6 1019.0 0.0
24/04:00am 10.8 6.8 0.2 48 4.4 ENE 11 15 6 8 1020.6 1019.0 0.0
24/03:30am 9.4 5.7 0.1 52 3.8 E 9 13 5 7 1020.6 1019.0 0.0
24/03:00am 10.2 6.5 0.0 49 4.2 E 9 13 5 7 1020.7 1019.1 0.0
24/02:30am 11.1 7.1 0.5 48 4.5 E 11 13 6 7 1020.7 1019.1 0.0
24/02:00am 11.2 7.2 0.6 48 4.5 E 11 13 6 7 1020.9 1019.4 0.0
24/01:30am 10.8 6.8 0.5 49 4.4 E 11 13 6 7 1021.0 1019.5 0.0
24/01:00am 11.3 7.0 0.7 48 4.5 E 13 15 7 8 1021.2 1019.7 0.0
24/12:30am 11.5 7.6 0.9 48 4.6 ESE 11 13 6 7 1021.5 1020.0 0.0
24/12:00am 11.7 7.7 0.8 47 4.7 E 11 11 6 6 1021.5 1020.0 0.0
 
Date/Time
WST
Temp
°C
App
Temp
°C
Dew
Point
°C
Rel
Hum
%
Delta-T
°C
Wind Press
QNH
hPa
Press
MSL
hPa
Rain since
9am
mm
Dir  Spd
km/h
Gust
km/h
Spd
kts
Gust
kts
23/11:30pm 12.2 7.9 0.9 46 4.9 E 13 15 7 8 1021.7 1020.2 0.0
23/11:00pm 12.6 8.7 1.0 45 5.0 E 11 13 6 7 1021.9 1020.4 0.0
23/10:30pm 13.6 8.9 0.9 42 5.6 ESE 15 20 8 11 1021.9 1020.4 0.0
23/10:00pm 14.2 9.5 1.2 41 5.7 E 15 17 8 9 1021.8 1020.3 0.0
23/09:30pm 14.4 10.1 1.0 40 5.9 ESE 13 17 7 9 1021.8 1020.3 0.0
23/09:00pm 15.3 11.0 0.7 37 6.4 ESE 13 17 7 9 1021.9 1020.4 0.0
23/08:30pm 16.0 11.7 1.0 36 6.7 SE 13 17 7 9 1021.7 1020.2 0.0
23/08:00pm 16.4 12.5 0.9 35 6.9 SE 11 13 6 7 1021.6 1020.1 0.0
23/07:30pm 16.5 12.6 1.0 35 7.0 SE 11 13 6 7 1021.5 1020.0 0.0
23/07:00pm 16.5 12.6 1.0 35 7.0 SE 11 11 6 6 1021.2 1019.7 0.0
23/06:30pm 17.4 13.9 1.4 34 7.3 SSE 9 11 5 6 1020.9 1019.4 0.0
23/06:00pm 18.9 15.0 1.4 31 8.1 ESE 11 13 6 7 1020.6 1019.0 0.0
23/05:30pm 19.7 16.3 1.7 30 8.4 SSE 9 11 5 6 1020.3 1018.7 0.0
23/05:00pm 20.9 18.0 1.7 28 9.1 SE 6 11 3 6 1020.2 1018.6 0.0
23/04:30pm 21.9 19.8 1.6 26 9.7 W 2 7 1 4 1020.1 1018.5 0.0
23/04:00pm 22.3 20.2 1.9 26 9.8 ENE 2 7 1 4 1020.1 1018.5 0.0
23/03:30pm 22.2 19.2 1.8 26 9.8 N 7 11 4 6 1019.9 1018.4 0.0
23/03:00pm 21.9 18.2 2.1 27 9.5 ENE 11 15 6 8 1019.9 1018.4 0.0
23/02:30pm 21.7 18.3 1.9 27 9.5 SE 9 13 5 7 1020.1 1018.5 0.0
23/02:00pm 21.1 17.7 1.9 28 9.1 SW 9 15 5 8 1020.3 1018.7 0.0
23/01:30pm 21.5 18.2 2.2 28 9.3 SSE 9 13 5 7 1020.6 1019.0 0.0
23/01:00pm 21.1 17.9 2.9 30 8.8 E 9 17 5 9 1021.1 1019.6 0.0
23/12:30pm 20.2 16.1 2.5 31 8.5 E 13 17 7 9 1021.7 1020.2 0.0
23/12:00pm 19.7 16.3 2.1 31 8.3 E 9 17 5 9 1022.2 1020.6 0.0
23/11:30am 19.1 15.0 2.0 32 8.0 ENE 13 19 7 10 1022.7 1021.2 0.0
23/11:00am 19.0 14.5 2.0 32 7.9 E 15 20 8 11 1023.1 1021.6 0.0
23/10:30am 17.8 12.8 1.3 33 7.6 E 17 24 9 13 1023.7 1022.2 0.0
23/10:00am 17.0 11.9 1.0 34 7.2 E 17 22 9 12 1024.0 1022.5 0.0
23/09:30am 15.8 10.1 0.8 36 6.7 E 20 26 11 14 1024.0 1022.5 0.0
23/09:00am 14.5 8.9 1.1 40 5.9 E 20 28 11 15 1024.0 1022.5 0.0
23/08:30am 12.9 7.5 1.3 45 5.1 E 19 28 10 15 1023.7 1022.2 0.0
23/08:00am 12.0 7.0 1.3 48 4.6 E 17 24 9 13 1023.3 1021.8 0.0
23/07:30am 10.1 5.1 1.2 54 3.8 E 17 20 9 11 1023.0 1021.5 0.0
23/07:00am 8.6 4.3 1.1 59 3.1 E 13 15 7 8 1022.8 1021.3 0.0
23/06:30am 8.1 3.8 1.0 61 3.0 E 13 17 7 9 1022.8 1021.3 0.0
23/06:00am 7.3 3.7 0.7 63 2.7 E 9 13 5 7 1022.6 1021.1 0.0
23/05:30am 7.7 4.1 0.9 62 2.8 E 9 13 5 7 1022.4 1020.8 0.0
23/05:00am 8.4 4.5 1.1 60 3.0 ESE 11 15 6 8 1022.3 1020.7 0.0
23/04:30am 8.0 4.1 1.0 61 2.9 ESE 11 15 6 8 1022.2 1020.6 0.0
23/04:00am 8.0 4.5 1.0 61 2.9 E 9 11 5 6 1022.3 1020.7 0.0
23/03:30am 8.5 4.6 1.0 59 3.1 E 11 13 6 7 1022.3 1020.7 0.0
23/03:00am 9.2 5.0 1.4 58 3.3 ESE 13 17 7 9 1022.0 1020.5 0.0
23/02:30am 9.3 5.0 1.2 57 3.4 ESE 13 19 7 10 1022.0 1020.5 0.0
23/02:00am 9.7 5.0 1.1 55 3.6 SE 15 19 8 10 1021.9 1020.4 0.0
23/01:30am 9.9 5.6 1.0 54 3.8 SE 13 17 7 9 1022.2 1020.6 0.0
23/01:00am 9.8 5.8 0.7 53 3.8 SE 11 15 6 8 1022.0 1020.5 0.0
23/12:30am 10.2 6.2 0.8 52 4.0 SE 11 15 6 8 1022.0 1020.5 0.0
23/12:00am 10.0 6.4 0.6 52 3.9 SE 9 13 5 7 1022.2 1020.6 0.0
 
Date/Time
WST
Temp
°C
App
Temp
°C
Dew
Point
°C
Rel
Hum
%
Delta-T
°C
Wind Press
QNH
hPa
Press
MSL
hPa
Rain since
9am
mm
Dir  Spd
km/h
Gust
km/h
Spd
kts
Gust
kts
22/11:30pm 9.9 6.3 0.3 51 4.0 SE 9 11 5 6 1022.4 1020.8 0.0
22/11:00pm 10.8 7.5 0.2 48 4.4 ESE 7 9 4 5 1022.6 1021.1 0.0
22/10:30pm 11.4 7.4 0.2 46 4.7 S 11 13 6 7 1022.3 1020.7 0.0
22/10:00pm 12.2 8.1 0.0 43 5.2 S 11 15 6 8 1022.0 1020.5 0.0
22/09:30pm 13.3 8.0 -0.3 39 5.8 SSE 17 24 9 13 1021.9 1020.4 0.0
22/09:00pm 13.1 9.0 -0.5 39 5.7 ESE 11 15 6 8 1021.9 1020.4 0.0
22/08:30pm 13.9 9.8 -0.5 37 6.1 ESE 11 15 6 8 1021.7 1020.2 0.0
22/08:00pm 14.6 10.0 -0.7 35 6.5 ESE 13 17 7 9 1021.5 1020.0 0.0
22/07:30pm 15.2 11.1 -0.5 34 6.8 ESE 11 15 6 8 1021.2 1019.7 0.0
22/07:00pm 14.8 11.0 -0.9 34 6.7 SE 9 11 5 6 1020.9 1019.4 0.0
22/06:30pm 15.3 11.1 -0.9 33 6.9 SE 11 13 6 7 1020.5 1018.9 0.0
22/06:00pm 16.1 12.3 -0.6 32 7.2 SE 9 13 5 7 1020.2 1018.6 0.0
22/05:30pm 17.3 12.8 -0.4 30 7.8 ESE 13 19 7 10 1019.8 1018.3 0.0
22/05:00pm 18.1 13.6 -0.2 29 8.1 SSE 13 19 7 10 1019.6 1018.1 0.0
22/04:30pm 18.9 14.4 0.0 28 8.5 SSE 13 22 7 12 1019.4 1017.9 0.0
22/04:00pm 19.1 15.4 0.2 28 8.5 SSE 9 17 5 9 1019.2 1017.7 0.0
22/03:30pm 19.0 14.2 0.1 28 8.5 SE 15 24 8 13 1019.1 1017.6 0.0
22/03:00pm 19.6 15.5 0.1 27 8.8 SSW 11 22 6 12 1018.9 1017.3 0.0
22/02:30pm 19.3 15.3 0.8 29 8.5 ESE 11 20 6 11 1019.1 1017.6 0.0
22/02:00pm 19.0 14.0 1.5 31 8.1 S 17 24 9 13 1019.1 1017.6 0.0
22/01:30pm 18.6 15.9 2.4 34 7.6 SE 6 17 3 9 1019.2 1017.7 0.0
22/01:00pm 18.4 14.7 2.3 34 7.5 SSW 11 22 6 12 1019.5 1018.0 0.0

Other Formats:

Comma delimited format used in spreadsheet applications
http://www.bom.gov.au/fwo/IDW60801/IDW60801.94430.axf

JavaScript Object Notation format (JSON) in row-major order
http://www.bom.gov.au/fwo/IDW60801/IDW60801.94430.json